sensor_id;sensor_type;location;lat;lon;timestamp;temperature;humidity
17284;DHT22;8760;52.248;20.952;2022-12-07T00:01:24;1.90;99.90
17284;DHT22;8760;52.248;20.952;2022-12-07T00:03:52;2.00;99.90
17284;DHT22;8760;52.248;20.952;2022-12-07T00:06:20;1.90;99.90
17284;DHT22;8760;52.248;20.952;2022-12-07T00:08:47;2.00;99.90
17284;DHT22;8760;52.248;20.952;2022-12-07T00:11:16;2.10;99.90
17284;DHT22;8760;52.248;20.952;2022-12-07T00:13:45;2.10;99.90
17284;DHT22;8760;52.248;20.952;2022-12-07T00:16:14;2.20;99.90
17284;DHT22;8760;52.248;20.952;2022-12-07T00:18:43;2.20;99.90
17284;DHT22;8760;52.248;20.952;2022-12-07T00:21:11;2.20;99.90
17284;DHT22;8760;52.248;20.952;2022-12-07T00:23:40;2.30;99.90
17284;DHT22;8760;52.248;20.952;2022-12-07T00:26:09;2.30;99.90
17284;DHT22;8760;52.248;20.952;2022-12-07T00:28:37;2.30;99.90
17284;DHT22;8760;52.248;20.952;2022-12-07T00:31:07;2.40;99.90
17284;DHT22;8760;52.248;20.952;2022-12-07T00:33:37;2.30;99.90
17284;DHT22;8760;52.248;20.952;2022-12-07T00:36:07;2.30;99.90
17284;DHT22;8760;52.248;20.952;2022-12-07T00:38:35;2.30;99.90
17284;DHT22;8760;52.248;20.952;2022-12-07T00:41:05;2.20;99.90
17284;DHT22;8760;52.248;20.952;2022-12-07T00:43:32;2.30;99.90
17284;DHT22;8760;52.248;20.952;2022-12-07T00:45:59;2.30;99.90
17284;DHT22;8760;52.248;20.952;2022-12-07T00:48:27;2.30;99.90
17284;DHT22;8760;52.248;20.952;2022-12-07T00:50:54;2.30;99.90
17284;DHT22;8760;52.248;20.952;2022-12-07T00:53:22;2.40;99.90
17284;DHT22;8760;52.248;20.952;2022-12-07T00:55:49;2.40;99.90
17284;DHT22;8760;52.248;20.952;2022-12-07T00:58:16;2.40;99.90
17284;DHT22;8760;52.248;20.952;2022-12-07T01:00:43;2.40;99.90
17284;DHT22;8760;52.248;20.952;2022-12-07T01:03:12;2.40;99.90
17284;DHT22;8760;52.248;20.952;2022-12-07T01:05:40;2.40;99.90
17284;DHT22;8760;52.248;20.952;2022-12-07T01:08:15;2.50;99.90
17284;DHT22;8760;52.248;20.952;2022-12-07T01:10:41;2.50;99.90
17284;DHT22;8760;52.248;20.952;2022-12-07T01:13:08;2.40;99.90
17284;DHT22;8760;52.248;20.952;2022-12-07T01:15:39;2.40;99.90
17284;DHT22;8760;52.248;20.952;2022-12-07T01:18:06;2.50;99.90
17284;DHT22;8760;52.248;20.952;2022-12-07T01:20:33;2.40;99.90
17284;DHT22;8760;52.248;20.952;2022-12-07T01:23:01;2.40;99.90
17284;DHT22;8760;52.248;20.952;2022-12-07T01:25:28;2.50;99.90
17284;DHT22;8760;52.248;20.952;2022-12-07T01:27:54;2.50;99.90
17284;DHT22;8760;52.248;20.952;2022-12-07T01:30:21;2.50;99.90
17284;DHT22;8760;52.248;20.952;2022-12-07T01:32:48;2.40;99.90
17284;DHT22;8760;52.248;20.952;2022-12-07T01:35:15;2.40;99.90
17284;DHT22;8760;52.248;20.952;2022-12-07T01:37:42;2.50;99.90
17284;DHT22;8760;52.248;20.952;2022-12-07T01:40:11;2.50;99.90
17284;DHT22;8760;52.248;20.952;2022-12-07T01:42:38;2.50;99.90
17284;DHT22;8760;52.248;20.952;2022-12-07T01:45:34;2.50;99.90
17284;DHT22;8760;52.248;20.952;2022-12-07T01:48:04;2.50;99.90
17284;DHT22;8760;52.248;20.952;2022-12-07T01:50:31;2.50;99.90
17284;DHT22;8760;52.248;20.952;2022-12-07T01:53:00;2.60;99.90
17284;DHT22;8760;52.248;20.952;2022-12-07T01:55:30;2.50;99.90
17284;DHT22;8760;52.248;20.952;2022-12-07T01:57:57;2.60;99.90
17284;DHT22;8760;52.248;20.952;2022-12-07T02:00:24;2.60;99.90
17284;DHT22;8760;52.248;20.952;2022-12-07T02:02:54;2.50;99.90
17284;DHT22;8760;52.248;20.952;2022-12-07T02:05:23;2.50;99.90
17284;DHT22;8760;52.248;20.952;2022-12-07T02:07:52;2.60;99.90
17284;DHT22;8760;52.248;20.952;2022-12-07T02:10:22;2.60;99.90
17284;DHT22;8760;52.248;20.952;2022-12-07T02:12:53;2.60;99.90
17284;DHT22;8760;52.248;20.952;2022-12-07T02:15:22;2.60;99.90
17284;DHT22;8760;52.248;20.952;2022-12-07T02:17:58;2.60;99.90
17284;DHT22;8760;52.248;20.952;2022-12-07T02:20:29;2.60;99.90
17284;DHT22;8760;52.248;20.952;2022-12-07T02:23:38;2.60;99.90
17284;DHT22;8760;52.248;20.952;2022-12-07T02:26:43;2.60;99.90
17284;DHT22;8760;52.248;20.952;2022-12-07T02:29:20;2.60;99.90
17284;DHT22;8760;52.248;20.952;2022-12-07T02:31:54;2.60;99.90
17284;DHT22;8760;52.248;20.952;2022-12-07T02:34:29;2.60;99.90
17284;DHT22;8760;52.248;20.952;2022-12-07T02:37:00;2.60;99.90
17284;DHT22;8760;52.248;20.952;2022-12-07T02:39:32;2.70;99.90
17284;DHT22;8760;52.248;20.952;2022-12-07T02:42:04;2.70;99.90
17284;DHT22;8760;52.248;20.952;2022-12-07T02:44:36;2.60;99.90
17284;DHT22;8760;52.248;20.952;2022-12-07T02:47:06;2.50;99.90
17284;DHT22;8760;52.248;20.952;2022-12-07T02:49:34;2.60;99.90
17284;DHT22;8760;52.248;20.952;2022-12-07T02:52:02;2.50;99.90
17284;DHT22;8760;52.248;20.952;2022-12-07T02:54:29;2.50;99.90
17284;DHT22;8760;52.248;20.952;2022-12-07T02:57:01;2.50;99.90
17284;DHT22;8760;52.248;20.952;2022-12-07T02:59:36;2.50;99.90
17284;DHT22;8760;52.248;20.952;2022-12-07T03:02:17;2.50;99.90
17284;DHT22;8760;52.248;20.952;2022-12-07T03:04:54;2.50;99.90
17284;DHT22;8760;52.248;20.952;2022-12-07T03:07:28;2.50;99.90
17284;DHT22;8760;52.248;20.952;2022-12-07T03:10:01;2.50;99.90
17284;DHT22;8760;52.248;20.952;2022-12-07T03:12:32;2.50;99.90
17284;DHT22;8760;52.248;20.952;2022-12-07T03:15:07;2.40;99.90
17284;DHT22;8760;52.248;20.952;2022-12-07T03:17:38;2.40;99.90
17284;DHT22;8760;52.248;20.952;2022-12-07T03:20:08;2.40;99.90
17284;DHT22;8760;52.248;20.952;2022-12-07T03:22:38;2.30;99.90
17284;DHT22;8760;52.248;20.952;2022-12-07T03:25:09;2.30;99.90
17284;DHT22;8760;52.248;20.952;2022-12-07T03:27:41;2.30;99.90
17284;DHT22;8760;52.248;20.952;2022-12-07T03:30:14;2.20;99.90
17284;DHT22;8760;52.248;20.952;2022-12-07T03:32:44;2.30;99.90
17284;DHT22;8760;52.248;20.952;2022-12-07T03:35:16;2.30;99.90
17284;DHT22;8760;52.248;20.952;2022-12-07T03:37:47;2.30;99.90
17284;DHT22;8760;52.248;20.952;2022-12-07T03:40:19;2.30;99.90
17284;DHT22;8760;52.248;20.952;2022-12-07T03:42:50;2.30;99.90
17284;DHT22;8760;52.248;20.952;2022-12-07T03:45:20;2.30;99.90
17284;DHT22;8760;52.248;20.952;2022-12-07T03:47:54;2.30;99.90
17284;DHT22;8760;52.248;20.952;2022-12-07T03:50:32;2.30;99.90
17284;DHT22;8760;52.248;20.952;2022-12-07T03:53:08;2.30;99.90
17284;DHT22;8760;52.248;20.952;2022-12-07T03:55:37;2.30;99.90
17284;DHT22;8760;52.248;20.952;2022-12-07T03:58:07;2.30;99.90
17284;DHT22;8760;52.248;20.952;2022-12-07T04:00:37;2.30;99.90
17284;DHT22;8760;52.248;20.952;2022-12-07T04:03:04;2.30;99.90
17284;DHT22;8760;52.248;20.952;2022-12-07T04:05:31;2.30;99.90
17284;DHT22;8760;52.248;20.952;2022-12-07T04:07:58;2.30;99.90
17284;DHT22;8760;52.248;20.952;2022-12-07T04:10:24;2.30;99.90
17284;DHT22;8760;52.248;20.952;2022-12-07T04:12:51;2.30;99.90
17284;DHT22;8760;52.248;20.952;2022-12-07T04:15:18;2.30;99.90
17284;DHT22;8760;52.248;20.952;2022-12-07T04:17:46;2.30;99.90
17284;DHT22;8760;52.248;20.952;2022-12-07T04:20:13;2.20;99.90
17284;DHT22;8760;52.248;20.952;2022-12-07T04:22:40;2.20;99.90
17284;DHT22;8760;52.248;20.952;2022-12-07T04:25:07;2.20;99.90
17284;DHT22;8760;52.248;20.952;2022-12-07T04:27:34;2.20;99.90
17284;DHT22;8760;52.248;20.952;2022-12-07T04:30:01;2.10;99.90
17284;DHT22;8760;52.248;20.952;2022-12-07T04:32:28;2.10;99.90
17284;DHT22;8760;52.248;20.952;2022-12-07T04:34:56;2.10;99.90
17284;DHT22;8760;52.248;20.952;2022-12-07T04:37:23;2.10;99.90
17284;DHT22;8760;52.248;20.952;2022-12-07T04:39:50;2.20;99.90
17284;DHT22;8760;52.248;20.952;2022-12-07T04:42:17;2.20;99.90
17284;DHT22;8760;52.248;20.952;2022-12-07T04:44:44;2.10;99.90
17284;DHT22;8760;52.248;20.952;2022-12-07T04:47:11;2.10;99.90
17284;DHT22;8760;52.248;20.952;2022-12-07T04:49:38;2.10;99.90
17284;DHT22;8760;52.248;20.952;2022-12-07T04:52:06;2.10;99.90
17284;DHT22;8760;52.248;20.952;2022-12-07T04:54:33;2.10;99.90
17284;DHT22;8760;52.248;20.952;2022-12-07T04:57:00;2.10;99.90
17284;DHT22;8760;52.248;20.952;2022-12-07T04:59:27;2.10;99.90
17284;DHT22;8760;52.248;20.952;2022-12-07T05:01:54;2.00;99.90
17284;DHT22;8760;52.248;20.952;2022-12-07T05:04:21;2.10;99.90
17284;DHT22;8760;52.248;20.952;2022-12-07T05:06:47;2.00;99.90
17284;DHT22;8760;52.248;20.952;2022-12-07T05:09:16;2.00;99.90
17284;DHT22;8760;52.248;20.952;2022-12-07T05:11:42;1.90;99.90
17284;DHT22;8760;52.248;20.952;2022-12-07T05:14:13;2.00;99.90
17284;DHT22;8760;52.248;20.952;2022-12-07T05:16:41;1.90;99.90
17284;DHT22;8760;52.248;20.952;2022-12-07T05:19:09;1.90;99.90
17284;DHT22;8760;52.248;20.952;2022-12-07T05:21:36;1.80;99.90
17284;DHT22;8760;52.248;20.952;2022-12-07T05:24:05;1.80;99.90
17284;DHT22;8760;52.248;20.952;2022-12-07T05:26:33;1.80;99.90
17284;DHT22;8760;52.248;20.952;2022-12-07T05:29:00;1.90;99.90
17284;DHT22;8760;52.248;20.952;2022-12-07T05:31:28;1.90;99.90
17284;DHT22;8760;52.248;20.952;2022-12-07T05:33:55;1.90;99.90
17284;DHT22;8760;52.248;20.952;2022-12-07T05:36:22;1.80;99.90
17284;DHT22;8760;52.248;20.952;2022-12-07T05:38:49;1.80;99.90
17284;DHT22;8760;52.248;20.952;2022-12-07T05:41:17;1.80;99.90
17284;DHT22;8760;52.248;20.952;2022-12-07T05:44:03;1.80;99.90
17284;DHT22;8760;52.248;20.952;2022-12-07T05:46:30;1.70;99.90
17284;DHT22;8760;52.248;20.952;2022-12-07T05:48:57;1.70;99.90
17284;DHT22;8760;52.248;20.952;2022-12-07T05:51:24;1.70;99.90
17284;DHT22;8760;52.248;20.952;2022-12-07T05:53:51;1.70;99.90
17284;DHT22;8760;52.248;20.952;2022-12-07T05:56:18;1.70;99.90
17284;DHT22;8760;52.248;20.952;2022-12-07T05:58:44;1.60;99.90
17284;DHT22;8760;52.248;20.952;2022-12-07T06:01:30;1.60;99.90
17284;DHT22;8760;52.248;20.952;2022-12-07T06:03:57;1.60;99.90
17284;DHT22;8760;52.248;20.952;2022-12-07T06:06:24;1.60;99.90
17284;DHT22;8760;52.248;20.952;2022-12-07T06:08:51;1.60;99.90
17284;DHT22;8760;52.248;20.952;2022-12-07T06:11:18;1.60;99.90
17284;DHT22;8760;52.248;20.952;2022-12-07T06:14:02;1.60;99.90
17284;DHT22;8760;52.248;20.952;2022-12-07T06:16:30;1.60;99.90
17284;DHT22;8760;52.248;20.952;2022-12-07T06:18:57;1.60;99.90
17284;DHT22;8760;52.248;20.952;2022-12-07T06:21:24;1.50;99.90
17284;DHT22;8760;52.248;20.952;2022-12-07T06:23:52;1.60;99.90
17284;DHT22;8760;52.248;20.952;2022-12-07T06:26:19;1.50;99.90
17284;DHT22;8760;52.248;20.952;2022-12-07T06:28:46;1.50;99.90
17284;DHT22;8760;52.248;20.952;2022-12-07T06:31:13;1.50;99.90
17284;DHT22;8760;52.248;20.952;2022-12-07T06:33:41;1.60;99.90
17284;DHT22;8760;52.248;20.952;2022-12-07T06:36:08;1.60;99.90
17284;DHT22;8760;52.248;20.952;2022-12-07T06:38:35;1.60;99.90
17284;DHT22;8760;52.248;20.952;2022-12-07T06:41:02;1.60;99.90
17284;DHT22;8760;52.248;20.952;2022-12-07T06:43:30;1.50;99.90
17284;DHT22;8760;52.248;20.952;2022-12-07T06:45:56;1.50;99.90
17284;DHT22;8760;52.248;20.952;2022-12-07T06:48:23;1.60;99.90
17284;DHT22;8760;52.248;20.952;2022-12-07T06:50:52;1.60;99.90
17284;DHT22;8760;52.248;20.952;2022-12-07T06:53:19;1.60;99.90
17284;DHT22;8760;52.248;20.952;2022-12-07T06:55:46;1.50;99.90
17284;DHT22;8760;52.248;20.952;2022-12-07T06:58:12;1.60;99.90
17284;DHT22;8760;52.248;20.952;2022-12-07T07:00:39;1.60;99.90
17284;DHT22;8760;52.248;20.952;2022-12-07T07:03:06;1.60;99.90
17284;DHT22;8760;52.248;20.952;2022-12-07T07:05:33;1.60;99.90
17284;DHT22;8760;52.248;20.952;2022-12-07T07:08:02;1.60;99.90
17284;DHT22;8760;52.248;20.952;2022-12-07T07:10:29;1.60;99.90
17284;DHT22;8760;52.248;20.952;2022-12-07T07:12:56;1.60;99.90
17284;DHT22;8760;52.248;20.952;2022-12-07T07:15:23;1.60;99.90
17284;DHT22;8760;52.248;20.952;2022-12-07T07:17:49;1.50;99.90
17284;DHT22;8760;52.248;20.952;2022-12-07T07:20:16;1.50;99.90
17284;DHT22;8760;52.248;20.952;2022-12-07T07:22:43;1.50;99.90
17284;DHT22;8760;52.248;20.952;2022-12-07T07:25:12;1.50;99.90
17284;DHT22;8760;52.248;20.952;2022-12-07T07:27:39;1.50;99.90
17284;DHT22;8760;52.248;20.952;2022-12-07T07:30:07;1.50;99.90
17284;DHT22;8760;52.248;20.952;2022-12-07T07:32:34;1.50;99.90
17284;DHT22;8760;52.248;20.952;2022-12-07T07:35:01;1.60;99.90
17284;DHT22;8760;52.248;20.952;2022-12-07T07:37:28;1.50;99.90
17284;DHT22;8760;52.248;20.952;2022-12-07T07:39:55;1.60;99.90
17284;DHT22;8760;52.248;20.952;2022-12-07T07:42:23;1.60;99.90
17284;DHT22;8760;52.248;20.952;2022-12-07T07:44:50;1.60;99.90
17284;DHT22;8760;52.248;20.952;2022-12-07T07:47:18;1.60;99.90
17284;DHT22;8760;52.248;20.952;2022-12-07T07:49:45;1.60;99.90
17284;DHT22;8760;52.248;20.952;2022-12-07T07:52:12;1.60;99.90
17284;DHT22;8760;52.248;20.952;2022-12-07T07:54:39;1.60;99.90
17284;DHT22;8760;52.248;20.952;2022-12-07T07:57:05;1.60;99.90
17284;DHT22;8760;52.248;20.952;2022-12-07T07:59:34;1.60;99.90
17284;DHT22;8760;52.248;20.952;2022-12-07T08:02:00;1.60;99.90
17284;DHT22;8760;52.248;20.952;2022-12-07T08:04:27;1.60;99.90
17284;DHT22;8760;52.248;20.952;2022-12-07T08:06:54;1.70;99.90
17284;DHT22;8760;52.248;20.952;2022-12-07T08:09:21;1.60;99.90
17284;DHT22;8760;52.248;20.952;2022-12-07T08:11:48;1.60;99.90
17284;DHT22;8760;52.248;20.952;2022-12-07T08:14:15;1.70;99.90
17284;DHT22;8760;52.248;20.952;2022-12-07T08:16:43;1.70;99.90
17284;DHT22;8760;52.248;20.952;2022-12-07T08:19:10;1.70;99.90
17284;DHT22;8760;52.248;20.952;2022-12-07T08:21:37;1.80;99.90
17284;DHT22;8760;52.248;20.952;2022-12-07T08:24:05;1.70;99.90
17284;DHT22;8760;52.248;20.952;2022-12-07T08:26:32;1.70;99.90
17284;DHT22;8760;52.248;20.952;2022-12-07T08:28:59;1.80;99.90
17284;DHT22;8760;52.248;20.952;2022-12-07T08:31:26;1.80;99.90
17284;DHT22;8760;52.248;20.952;2022-12-07T08:33:54;1.90;99.90
17284;DHT22;8760;52.248;20.952;2022-12-07T08:36:22;1.90;99.90
17284;DHT22;8760;52.248;20.952;2022-12-07T08:38:49;2.00;99.90
17284;DHT22;8760;52.248;20.952;2022-12-07T08:41:16;2.00;99.90
17284;DHT22;8760;52.248;20.952;2022-12-07T08:43:43;1.90;99.90
17284;DHT22;8760;52.248;20.952;2022-12-07T08:46:13;2.00;99.90
17284;DHT22;8760;52.248;20.952;2022-12-07T08:48:48;2.00;99.90
17284;DHT22;8760;52.248;20.952;2022-12-07T08:51:17;2.10;99.90
17284;DHT22;8760;52.248;20.952;2022-12-07T08:53:45;2.10;99.90
17284;DHT22;8760;52.248;20.952;2022-12-07T08:56:12;2.20;99.90
17284;DHT22;8760;52.248;20.952;2022-12-07T08:58:39;2.20;99.90
17284;DHT22;8760;52.248;20.952;2022-12-07T09:01:07;2.20;99.90
17284;DHT22;8760;52.248;20.952;2022-12-07T09:03:34;2.30;99.90
17284;DHT22;8760;52.248;20.952;2022-12-07T09:06:01;2.30;99.90
17284;DHT22;8760;52.248;20.952;2022-12-07T09:08:32;2.30;99.90
17284;DHT22;8760;52.248;20.952;2022-12-07T09:10:59;2.40;99.90
17284;DHT22;8760;52.248;20.952;2022-12-07T09:13:26;2.40;99.90
17284;DHT22;8760;52.248;20.952;2022-12-07T09:15:53;2.40;99.90
17284;DHT22;8760;52.248;20.952;2022-12-07T09:18:20;2.50;99.90
17284;DHT22;8760;52.248;20.952;2022-12-07T09:20:47;2.60;99.90
17284;DHT22;8760;52.248;20.952;2022-12-07T09:23:13;2.60;99.90
17284;DHT22;8760;52.248;20.952;2022-12-07T09:25:42;2.70;99.90
17284;DHT22;8760;52.248;20.952;2022-12-07T09:28:09;2.70;99.90
17284;DHT22;8760;52.248;20.952;2022-12-07T09:30:36;2.70;99.90
17284;DHT22;8760;52.248;20.952;2022-12-07T09:33:03;2.70;99.90
17284;DHT22;8760;52.248;20.952;2022-12-07T09:35:31;2.80;99.90
17284;DHT22;8760;52.248;20.952;2022-12-07T09:37:58;2.80;99.90
17284;DHT22;8760;52.248;20.952;2022-12-07T09:40:25;2.80;99.90
17284;DHT22;8760;52.248;20.952;2022-12-07T09:42:54;2.90;99.90
17284;DHT22;8760;52.248;20.952;2022-12-07T09:45:23;2.90;99.90
17284;DHT22;8760;52.248;20.952;2022-12-07T09:47:51;3.00;99.90
17284;DHT22;8760;52.248;20.952;2022-12-07T09:50:21;3.00;99.90
17284;DHT22;8760;52.248;20.952;2022-12-07T09:52:50;3.00;99.90
17284;DHT22;8760;52.248;20.952;2022-12-07T09:55:21;3.00;99.90
17284;DHT22;8760;52.248;20.952;2022-12-07T09:57:49;3.10;99.90
17284;DHT22;8760;52.248;20.952;2022-12-07T10:00:20;3.10;99.90
17284;DHT22;8760;52.248;20.952;2022-12-07T10:02:51;3.00;99.90
17284;DHT22;8760;52.248;20.952;2022-12-07T10:05:22;3.00;99.90
17284;DHT22;8760;52.248;20.952;2022-12-07T10:07:51;2.90;99.90
17284;DHT22;8760;52.248;20.952;2022-12-07T10:10:20;3.00;99.90
17284;DHT22;8760;52.248;20.952;2022-12-07T10:12:55;3.00;99.90
17284;DHT22;8760;52.248;20.952;2022-12-07T10:15:23;3.10;99.90
17284;DHT22;8760;52.248;20.952;2022-12-07T10:18:03;3.10;99.90
17284;DHT22;8760;52.248;20.952;2022-12-07T10:20:30;3.10;99.90
17284;DHT22;8760;52.248;20.952;2022-12-07T10:22:59;3.10;99.90
17284;DHT22;8760;52.248;20.952;2022-12-07T10:25:29;3.10;99.90
17284;DHT22;8760;52.248;20.952;2022-12-07T10:28:00;3.10;99.90
17284;DHT22;8760;52.248;20.952;2022-12-07T10:30:29;3.20;99.90
17284;DHT22;8760;52.248;20.952;2022-12-07T10:32:56;3.20;99.90
17284;DHT22;8760;52.248;20.952;2022-12-07T10:35:25;3.30;99.90
17284;DHT22;8760;52.248;20.952;2022-12-07T10:37:53;3.30;99.90
17284;DHT22;8760;52.248;20.952;2022-12-07T10:40:29;3.30;99.90
17284;DHT22;8760;52.248;20.952;2022-12-07T10:43:05;3.30;99.90
17284;DHT22;8760;52.248;20.952;2022-12-07T10:45:35;3.30;99.90
17284;DHT22;8760;52.248;20.952;2022-12-07T10:48:12;3.30;99.90
17284;DHT22;8760;52.248;20.952;2022-12-07T10:50:47;3.30;99.90
17284;DHT22;8760;52.248;20.952;2022-12-07T10:53:31;3.30;99.90
17284;DHT22;8760;52.248;20.952;2022-12-07T10:56:22;3.30;99.90
17284;DHT22;8760;52.248;20.952;2022-12-07T10:59:01;3.30;99.90
17284;DHT22;8760;52.248;20.952;2022-12-07T11:01:35;3.30;99.90
17284;DHT22;8760;52.248;20.952;2022-12-07T11:04:23;3.30;99.90
17284;DHT22;8760;52.248;20.952;2022-12-07T11:06:57;3.20;99.90
17284;DHT22;8760;52.248;20.952;2022-12-07T11:12:28;3.40;99.90
17284;DHT22;8760;52.248;20.952;2022-12-07T11:15:02;3.30;99.90
17284;DHT22;8760;52.248;20.952;2022-12-07T11:17:39;3.40;99.90
17284;DHT22;8760;52.248;20.952;2022-12-07T11:20:18;3.40;99.90
17284;DHT22;8760;52.248;20.952;2022-12-07T11:22:54;3.40;99.90
17284;DHT22;8760;52.248;20.952;2022-12-07T11:25:31;3.40;99.90
17284;DHT22;8760;52.248;20.952;2022-12-07T11:28:15;3.30;99.90
17284;DHT22;8760;52.248;20.952;2022-12-07T11:30:51;3.30;99.90
17284;DHT22;8760;52.248;20.952;2022-12-07T11:33:29;3.30;99.90
17284;DHT22;8760;52.248;20.952;2022-12-07T11:36:04;3.30;99.90
17284;DHT22;8760;52.248;20.952;2022-12-07T11:38:41;3.40;99.90
17284;DHT22;8760;52.248;20.952;2022-12-07T11:41:09;3.40;99.90
17284;DHT22;8760;52.248;20.952;2022-12-07T11:43:51;3.40;99.90
17284;DHT22;8760;52.248;20.952;2022-12-07T11:46:20;3.40;99.90
17284;DHT22;8760;52.248;20.952;2022-12-07T11:48:57;3.50;99.90
17284;DHT22;8760;52.248;20.952;2022-12-07T11:51:25;3.50;99.90
17284;DHT22;8760;52.248;20.952;2022-12-07T11:53:56;3.50;99.90
17284;DHT22;8760;52.248;20.952;2022-12-07T11:56:27;3.50;99.90
17284;DHT22;8760;52.248;20.952;2022-12-07T11:58:59;3.60;99.90
17284;DHT22;8760;52.248;20.952;2022-12-07T12:01:39;3.70;99.90
17284;DHT22;8760;52.248;20.952;2022-12-07T12:04:27;3.70;99.90
17284;DHT22;8760;52.248;20.952;2022-12-07T12:06:55;3.70;99.90
17284;DHT22;8760;52.248;20.952;2022-12-07T12:09:25;3.80;99.90
17284;DHT22;8760;52.248;20.952;2022-12-07T12:12:21;3.70;99.90
17284;DHT22;8760;52.248;20.952;2022-12-07T12:15:03;3.70;99.90
17284;DHT22;8760;52.248;20.952;2022-12-07T12:17:47;3.70;99.90
17284;DHT22;8760;52.248;20.952;2022-12-07T12:20:23;3.50;99.90
17284;DHT22;8760;52.248;20.952;2022-12-07T12:22:57;3.40;99.90
17284;DHT22;8760;52.248;20.952;2022-12-07T12:25:27;3.20;99.90
17284;DHT22;8760;52.248;20.952;2022-12-07T12:27:57;3.20;99.90
17284;DHT22;8760;52.248;20.952;2022-12-07T12:30:35;3.20;99.90
17284;DHT22;8760;52.248;20.952;2022-12-07T12:33:12;3.10;99.90
17284;DHT22;8760;52.248;20.952;2022-12-07T12:35:42;3.00;99.90
17284;DHT22;8760;52.248;20.952;2022-12-07T12:38:30;3.10;99.90
17284;DHT22;8760;52.248;20.952;2022-12-07T12:40:59;3.10;99.90
17284;DHT22;8760;52.248;20.952;2022-12-07T12:43:47;3.10;99.90
17284;DHT22;8760;52.248;20.952;2022-12-07T12:46:47;3.10;99.90
17284;DHT22;8760;52.248;20.952;2022-12-07T12:49:38;3.10;99.90
17284;DHT22;8760;52.248;20.952;2022-12-07T12:55:29;3.10;99.90
17284;DHT22;8760;52.248;20.952;2022-12-07T12:58:33;3.20;99.90
17284;DHT22;8760;52.248;20.952;2022-12-07T13:07:13;3.10;99.90
17284;DHT22;8760;52.248;20.952;2022-12-07T13:10:02;3.10;99.90
17284;DHT22;8760;52.248;20.952;2022-12-07T13:12:31;3.10;99.90
17284;DHT22;8760;52.248;20.952;2022-12-07T13:14:58;3.00;99.90
17284;DHT22;8760;52.248;20.952;2022-12-07T13:17:57;2.90;99.90
17284;DHT22;8760;52.248;20.952;2022-12-07T13:20:51;2.90;99.90
17284;DHT22;8760;52.248;20.952;2022-12-07T13:23:24;2.90;99.90
17284;DHT22;8760;52.248;20.952;2022-12-07T13:25:56;2.90;99.90
17284;DHT22;8760;52.248;20.952;2022-12-07T13:28:33;2.90;99.90
17284;DHT22;8760;52.248;20.952;2022-12-07T13:31:29;2.90;99.90
17284;DHT22;8760;52.248;20.952;2022-12-07T13:33:57;2.90;99.90
17284;DHT22;8760;52.248;20.952;2022-12-07T13:36:25;2.90;99.90
17284;DHT22;8760;52.248;20.952;2022-12-07T13:38:55;2.90;99.90
17284;DHT22;8760;52.248;20.952;2022-12-07T13:41:24;2.90;99.90
17284;DHT22;8760;52.248;20.952;2022-12-07T13:44:01;2.90;99.90
17284;DHT22;8760;52.248;20.952;2022-12-07T13:46:40;2.80;99.90
17284;DHT22;8760;52.248;20.952;2022-12-07T13:49:17;2.80;99.90
17284;DHT22;8760;52.248;20.952;2022-12-07T13:51:45;2.70;99.90
17284;DHT22;8760;52.248;20.952;2022-12-07T13:54:13;2.80;99.90
17284;DHT22;8760;52.248;20.952;2022-12-07T13:56:40;2.70;99.90
17284;DHT22;8760;52.248;20.952;2022-12-07T13:59:14;2.70;99.90
17284;DHT22;8760;52.248;20.952;2022-12-07T14:01:42;2.70;99.90
17284;DHT22;8760;52.248;20.952;2022-12-07T14:07:19;2.70;99.90
17284;DHT22;8760;52.248;20.952;2022-12-07T14:09:58;2.60;99.90
17284;DHT22;8760;52.248;20.952;2022-12-07T14:12:26;2.60;99.90
17284;DHT22;8760;52.248;20.952;2022-12-07T14:14:55;2.60;99.90
17284;DHT22;8760;52.248;20.952;2022-12-07T14:17:25;2.60;99.90
17284;DHT22;8760;52.248;20.952;2022-12-07T14:19:53;2.50;99.90
17284;DHT22;8760;52.248;20.952;2022-12-07T14:22:33;2.40;99.90
17284;DHT22;8760;52.248;20.952;2022-12-07T14:25:19;2.40;99.90
17284;DHT22;8760;52.248;20.952;2022-12-07T14:27:50;2.40;99.90
17284;DHT22;8760;52.248;20.952;2022-12-07T14:30:20;2.30;99.90
17284;DHT22;8760;52.248;20.952;2022-12-07T14:32:48;2.30;99.90
17284;DHT22;8760;52.248;20.952;2022-12-07T14:35:18;2.30;99.90
17284;DHT22;8760;52.248;20.952;2022-12-07T14:37:48;2.30;99.90
17284;DHT22;8760;52.248;20.952;2022-12-07T14:40:17;2.20;99.90
17284;DHT22;8760;52.248;20.952;2022-12-07T14:42:45;2.20;99.90
17284;DHT22;8760;52.248;20.952;2022-12-07T14:45:15;2.20;99.90
17284;DHT22;8760;52.248;20.952;2022-12-07T14:47:45;2.00;99.90
17284;DHT22;8760;52.248;20.952;2022-12-07T14:50:14;2.10;99.90
17284;DHT22;8760;52.248;20.952;2022-12-07T14:52:43;2.10;99.90
17284;DHT22;8760;52.248;20.952;2022-12-07T14:55:16;2.00;99.90
17284;DHT22;8760;52.248;20.952;2022-12-07T14:57:45;2.00;99.90
17284;DHT22;8760;52.248;20.952;2022-12-07T15:00:15;2.00;99.90
17284;DHT22;8760;52.248;20.952;2022-12-07T15:02:45;2.00;99.90
17284;DHT22;8760;52.248;20.952;2022-12-07T15:05:12;2.00;99.90
17284;DHT22;8760;52.248;20.952;2022-12-07T15:07:40;2.00;99.90
17284;DHT22;8760;52.248;20.952;2022-12-07T15:10:15;1.90;99.90
17284;DHT22;8760;52.248;20.952;2022-12-07T15:12:43;1.90;99.90
17284;DHT22;8760;52.248;20.952;2022-12-07T15:15:10;1.90;99.90
17284;DHT22;8760;52.248;20.952;2022-12-07T15:17:37;1.90;99.90
17284;DHT22;8760;52.248;20.952;2022-12-07T15:20:09;1.90;99.90
17284;DHT22;8760;52.248;20.952;2022-12-07T15:22:37;1.90;99.90
17284;DHT22;8760;52.248;20.952;2022-12-07T15:25:05;1.90;99.90
17284;DHT22;8760;52.248;20.952;2022-12-07T15:27:32;2.00;99.90
17284;DHT22;8760;52.248;20.952;2022-12-07T15:29:59;2.00;99.90
17284;DHT22;8760;52.248;20.952;2022-12-07T15:32:26;2.00;99.90
17284;DHT22;8760;52.248;20.952;2022-12-07T15:34:53;2.00;99.90
17284;DHT22;8760;52.248;20.952;2022-12-07T15:37:21;2.00;99.90
17284;DHT22;8760;52.248;20.952;2022-12-07T15:39:48;2.00;99.90
17284;DHT22;8760;52.248;20.952;2022-12-07T15:42:15;2.00;99.90
17284;DHT22;8760;52.248;20.952;2022-12-07T15:44:41;2.00;99.90
17284;DHT22;8760;52.248;20.952;2022-12-07T15:47:26;1.90;99.90
17284;DHT22;8760;52.248;20.952;2022-12-07T15:49:53;2.00;99.90
17284;DHT22;8760;52.248;20.952;2022-12-07T15:52:21;2.00;99.90
17284;DHT22;8760;52.248;20.952;2022-12-07T15:54:48;2.00;99.90
17284;DHT22;8760;52.248;20.952;2022-12-07T15:57:15;2.10;99.90
17284;DHT22;8760;52.248;20.952;2022-12-07T15:59:42;2.10;99.90
17284;DHT22;8760;52.248;20.952;2022-12-07T16:02:10;2.10;99.90
17284;DHT22;8760;52.248;20.952;2022-12-07T16:04:36;2.10;99.90
17284;DHT22;8760;52.248;20.952;2022-12-07T16:07:03;2.10;99.90
17284;DHT22;8760;52.248;20.952;2022-12-07T16:09:32;2.20;99.90
17284;DHT22;8760;52.248;20.952;2022-12-07T16:11:59;2.20;99.90
17284;DHT22;8760;52.248;20.952;2022-12-07T16:14:26;2.30;99.90
17284;DHT22;8760;52.248;20.952;2022-12-07T16:16:53;2.30;99.90
17284;DHT22;8760;52.248;20.952;2022-12-07T16:19:20;2.30;99.90
17284;DHT22;8760;52.248;20.952;2022-12-07T16:21:46;2.30;99.90